Time;durP1;ratioP1;P1;durP2;ratioP2;P2;SDS_P1;SDS_P2;PMS_P1;PMS_P2;Temp;Humidity;BMP_temperature;BMP_pressure;BME280_temperature;BME280_humidity;BME280_pressure;Samples;Min_cycle;Max_cycle;Signal;HPM_P1;HPM_P2
2021/04/29 00:02:06;;;;;;;13.68;8.80;;;;;;;;;;4359236;33;20162;-72
2021/04/29 00:04:31;;;;;;;16.65;10.02;;;;;;;;;;4360595;33;20219;-73
2021/04/29 00:06:56;;;;;;;17.95;9.77;;;;;;;;;;4360546;32;20293;-72
2021/04/29 00:09:22;;;;;;;15.15;10.20;;;;;;;;;;4360117;33;20457;-73
2021/04/29 00:11:47;;;;;;;14.93;9.60;;;;;;;;;;4360168;33;20475;-73
2021/04/29 00:14:13;;;;;;;15.87;10.53;;;;;;;;;;4360604;33;20508;-73
2021/04/29 00:16:44;;;;;;;15.80;9.50;;;;;;;;;;4358461;33;20520;-73
2021/04/29 00:19:10;;;;;;;16.23;9.93;;;;;;;;;;4360305;33;20150;-73
2021/04/29 00:21:38;;;;;;;12.70;9.30;;;;;;;;;;4358724;33;20200;-72
2021/04/29 00:27:09;;;;;;;14.97;9.90;;;;;;;;;;4313825;33;20581;-73
2021/04/29 00:30:02;;;;;;;13.32;9.35;;;;;;;;;;4357901;33;20147;-73
2021/04/29 00:32:27;;;;;;;15.50;10.20;;;;;;;;;;4360027;32;20162;-73
2021/04/29 00:35:14;;;;;;;15.90;9.40;;;;;;;;;;4360200;33;20185;-73
2021/04/29 00:37:38;;;;;;;15.20;9.63;;;;;;;;;;4359792;32;20166;-73
2021/04/29 00:40:08;;;;;;;14.47;9.97;;;;;;;;;;4359943;33;20134;-73
2021/04/29 00:42:45;;;;;;;14.47;9.37;;;;;;;;;;4360095;32;20233;-73
2021/04/29 00:45:12;;;;;;;14.80;10.00;;;;;;;;;;4360344;33;20173;-73
2021/04/29 00:47:39;;;;;;;15.40;9.18;;;;;;;;;;4360618;32;20197;-73
2021/04/29 00:50:05;;;;;;;14.13;8.68;;;;;;;;;;4363239;32;20569;-73
2021/04/29 00:52:31;;;;;;;13.60;9.47;;;;;;;;;;4362962;32;20165;-72
2021/04/29 00:54:56;;;;;;;16.00;9.60;;;;;;;;;;4362860;32;20182;-73
2021/04/29 00:57:32;;;;;;;;;;;;;;;;;;;;;
2021/04/29 01:00:35;;;;;;;;;;;;;;;;;;;;;
2021/04/29 01:03:17;;;;;;;16.50;9.65;;;;;;;;;;4345713;33;20661;-72
2021/04/29 01:05:58;;;;;;;15.40;9.47;;;;;;;;;;4346083;33;20211;-72
2021/04/29 01:08:40;;;;;;;;;;;;;;;;;;;;;
2021/04/29 01:11:09;;;;;;;18.97;9.33;;;;;;;;;;4331190;33;20136;-73
2021/04/29 01:14:06;;;;;;;15.27;9.05;;;;;;;;;;4347952;33;20161;-73
2021/04/29 01:19:18;;;;;;;16.40;10.13;;;;;;;;;;4339013;33;20147;-73
2021/04/29 01:21:45;;;;;;;16.25;10.18;;;;;;;;;;4347730;33;20445;-73
2021/04/29 01:24:30;;;;;;;16.42;9.88;;;;;;;;;;4347561;33;20139;-72
2021/04/29 01:27:11;;;;;;;18.20;10.43;;;;;;;;;;4347415;33;20439;-72
2021/04/29 01:29:50;;;;;;;15.90;10.63;;;;;;;;;;4361624;32;20204;-72
2021/04/29 01:32:19;;;;;;;18.47;10.50;;;;;;;;;;4362535;32;20160;-72
2021/04/29 01:44:03;;;;;;;19.27;10.57;;;;;;;;;;4301498;33;20171;-72
2021/04/29 01:46:42;;;;;;;19.03;10.73;;;;;;;;;;4301652;33;20478;-72
2021/04/29 01:49:08;;;;;;;18.40;10.00;;;;;;;;;;4339216;33;20261;-72
2021/04/29 01:52:01;;;;;;;16.15;10.40;;;;;;;;;;4361764;32;20131;-72
2021/04/29 01:54:27;;;;;;;15.83;11.07;;;;;;;;;;4361627;32;20139;-72
2021/04/29 01:56:54;;;;;;;18.90;10.33;;;;;;;;;;4362369;32;20505;-72
2021/04/29 01:59:20;;;;;;;17.37;11.13;;;;;;;;;;4361464;32;20135;-72
2021/04/29 02:01:45;;;;;;;17.27;11.00;;;;;;;;;;4361915;32;20161;-72
2021/04/29 02:04:11;;;;;;;17.73;11.50;;;;;;;;;;4362270;32;20261;-72
2021/04/29 02:06:41;;;;;;;18.97;11.03;;;;;;;;;;4361499;32;20205;-72
2021/04/29 02:09:12;;;;;;;17.53;11.03;;;;;;;;;;4361374;33;20139;-72
2021/04/29 02:11:40;;;;;;;19.13;11.30;;;;;;;;;;4362178;32;20159;-72
2021/04/29 02:14:06;;;;;;;20.70;11.60;;;;;;;;;;4361774;32;20162;-71
2021/04/29 02:17:03;;;;;;;19.60;12.47;;;;;;;;;;4346150;33;20181;-72
2021/04/29 02:19:30;;;;;;;20.27;12.10;;;;;;;;;;4359893;32;20265;-72
2021/04/29 02:21:55;;;;;;;21.13;11.97;;;;;;;;;;4361638;32;20127;-72
2021/04/29 02:24:36;;;;;;;17.20;11.27;;;;;;;;;;4361751;32;20131;-72
2021/04/29 02:30:08;;;;;;;17.10;11.97;;;;;;;;;;4357559;33;20208;-72
2021/04/29 02:32:36;;;;;;;23.47;12.43;;;;;;;;;;4361349;32;20198;-73
2021/04/29 02:35:05;;;;;;;18.20;11.63;;;;;;;;;;4360934;32;20619;-72
2021/04/29 02:40:20;;;;;;;21.30;12.40;;;;;;;;;;4352996;33;20496;-72
2021/04/29 02:43:31;;;;;;;20.33;12.40;;;;;;;;;;4361325;32;20146;-71
2021/04/29 02:48:56;;;;;;;24.20;13.73;;;;;;;;;;4284617;33;20669;-71
2021/04/29 02:51:42;;;;;;;26.60;14.67;;;;;;;;;;4348992;33;20185;-71
2021/04/29 02:54:36;;;;;;;23.57;14.73;;;;;;;;;;4361236;33;20182;-72
2021/04/29 02:57:27;;;;;;;29.07;16.67;;;;;;;;;;4286383;33;20152;-72
2021/04/29 03:12:27;;;;;;;;;;;;;;;;;;;;;
2021/04/29 03:15:15;;;;;;;40.27;18.03;;;;;;;;;;4273440;33;20179;-71
2021/04/29 03:20:54;;;;;;;40.00;20.00;;;;;;;;;;4300382;33;20510;-70
2021/04/29 03:24:07;;;;;;;36.93;18.87;;;;;;;;;;4299942;33;20135;-71
2021/04/29 03:26:32;;;;;;;39.20;18.13;;;;;;;;;;4288059;33;20214;-71
2021/04/29 03:29:33;;;;;;;38.10;19.30;;;;;;;;;;4299560;33;20629;-72
2021/04/29 03:32:08;;;;;;;;;;;;;;;;;;;;;
2021/04/29 03:35:07;;;;;;;;;;;;;;;;;;;;;
2021/04/29 03:37:50;;;;;;;42.23;21.47;;;;;;;;;;4360844;33;20147;-71
2021/04/29 03:43:55;;;;;;;39.97;21.13;;;;;;;;;;4329256;33;20187;-71
2021/04/29 03:46:44;;;;;;;37.20;18.90;;;;;;;;;;4328874;33;20182;-70
2021/04/29 03:49:23;;;;;;;;;;;;;;;;;;;;;
2021/04/29 03:55:02;;;;;;;36.63;19.13;;;;;;;;;;4296561;33;20217;-72
2021/04/29 03:57:45;;;;;;;44.47;22.83;;;;;;;;;;4359857;33;20154;-71
2021/04/29 04:00:35;;;;;;;43.70;20.47;;;;;;;;;;4360651;32;20161;-72
2021/04/29 04:06:10;;;;;;;41.37;20.20;;;;;;;;;;4360864;33;20197;-71
2021/04/29 04:08:35;;;;;;;37.07;20.90;;;;;;;;;;4360604;33;20130;-72
2021/04/29 04:11:16;;;;;;;42.07;20.23;;;;;;;;;;4360528;33;20143;-71
2021/04/29 04:26:09;;;;;;;42.97;20.63;;;;;;;;;;4331497;33;20680;-72
2021/04/29 04:28:55;;;;;;;39.53;20.10;;;;;;;;;;4360838;33;20226;-72
2021/04/29 04:31:30;;;;;;;47.43;22.50;;;;;;;;;;4363562;32;20150;-72
2021/04/29 04:34:06;;;;;;;43.00;20.40;;;;;;;;;;4322207;32;20168;-72
2021/04/29 04:36:38;;;;;;;38.80;21.33;;;;;;;;;;4363530;32;20147;-72
2021/04/29 04:39:06;;;;;;;41.47;22.20;;;;;;;;;;4363798;32;20526;-72
2021/04/29 04:41:32;;;;;;;45.13;22.50;;;;;;;;;;4362919;32;20427;-72
2021/04/29 04:43:57;;;;;;;36.77;20.57;;;;;;;;;;4362695;32;20202;-72
2021/04/29 04:46:23;;;;;;;45.80;23.50;;;;;;;;;;4363167;32;20529;-73
2021/04/29 04:48:49;;;;;;;35.53;21.13;;;;;;;;;;4363204;32;20147;-72
2021/04/29 04:51:16;;;;;;;35.37;20.70;;;;;;;;;;4363069;32;20139;-71
2021/04/29 04:53:49;;;;;;;38.27;21.30;;;;;;;;;;4362941;32;20151;-71
2021/04/29 04:56:17;;;;;;;35.07;20.63;;;;;;;;;;4363463;32;20162;-73
2021/04/29 05:07:32;;;;;;;38.67;19.57;;;;;;;;;;4331017;33;20528;-73
2021/04/29 05:09:58;;;;;;;32.53;17.73;;;;;;;;;;4356988;32;20253;-74
2021/04/29 05:12:23;;;;;;;40.07;19.40;;;;;;;;;;4362289;32;20147;-72
2021/04/29 05:14:48;;;;;;;38.77;19.37;;;;;;;;;;4361279;32;20505;-74
2021/04/29 05:17:13;;;;;;;37.87;18.20;;;;;;;;;;4362505;32;20139;-74
2021/04/29 05:19:38;;;;;;;37.57;18.13;;;;;;;;;;4360828;33;20163;-74
2021/04/29 05:22:04;;;;;;;35.47;18.27;;;;;;;;;;4362136;33;20580;-72
2021/04/29 05:24:29;;;;;;;32.03;19.03;;;;;;;;;;4348807;33;20280;-72
2021/04/29 05:26:54;;;;;;;31.50;18.30;;;;;;;;;;4362165;32;20193;-73
2021/04/29 05:29:19;;;;;;;37.20;18.00;;;;;;;;;;4361257;32;20167;-73
2021/04/29 05:31:45;;;;;;;29.73;17.83;;;;;;;;;;4362578;32;20131;-73
2021/04/29 05:34:33;;;;;;;28.83;17.53;;;;;;;;;;4361612;32;20167;-73
2021/04/29 05:37:01;;;;;;;32.93;17.47;;;;;;;;;;4362588;32;20489;-72
2021/04/29 05:39:26;;;;;;;32.77;18.00;;;;;;;;;;4362325;32;20165;-73
2021/04/29 05:41:51;;;;;;;30.07;17.73;;;;;;;;;;4362109;32;20139;-72
2021/04/29 05:44:20;;;;;;;29.93;17.23;;;;;;;;;;4361783;32;20328;-73
2021/04/29 05:46:46;;;;;;;30.93;17.60;;;;;;;;;;4361222;33;20184;-71
2021/04/29 05:49:19;;;;;;;32.67;18.17;;;;;;;;;;4362133;32;20560;-71
2021/04/29 05:51:44;;;;;;;30.03;17.30;;;;;;;;;;4361753;32;20438;-72
2021/04/29 05:54:10;;;;;;;32.27;17.00;;;;;;;;;;4361862;32;20170;-72
2021/04/29 05:56:35;;;;;;;32.17;17.73;;;;;;;;;;4361586;32;20135;-71
2021/04/29 05:59:00;;;;;;;29.53;16.40;;;;;;;;;;4361960;32;20135;-72
2021/04/29 06:01:25;;;;;;;31.73;16.60;;;;;;;;;;4361079;32;20193;-72
2021/04/29 06:03:51;;;;;;;30.00;16.33;;;;;;;;;;4361700;32;20166;-71
2021/04/29 06:06:17;;;;;;;34.00;15.87;;;;;;;;;;4360811;32;20167;-71
2021/04/29 06:08:45;;;;;;;29.83;15.43;;;;;;;;;;4360692;32;20178;-71
2021/04/29 06:11:10;;;;;;;24.20;14.77;;;;;;;;;;4360445;33;20238;-70
2021/04/29 06:13:35;;;;;;;31.60;14.73;;;;;;;;;;4361978;32;20164;-73
2021/04/29 06:16:01;;;;;;;26.53;15.47;;;;;;;;;;4361408;32;20506;-69
2021/04/29 06:18:26;;;;;;;24.93;14.63;;;;;;;;;;4361778;32;20139;-71
2021/04/29 06:20:51;;;;;;;24.43;14.57;;;;;;;;;;4360920;33;20155;-70
2021/04/29 06:23:17;;;;;;;26.90;15.27;;;;;;;;;;4361195;32;20171;-71
2021/04/29 06:25:45;;;;;;;24.30;14.67;;;;;;;;;;4361161;32;20147;-72
2021/04/29 06:28:10;;;;;;;24.00;13.77;;;;;;;;;;4352824;32;20251;-72
2021/04/29 06:30:48;;;;;;;25.13;14.57;;;;;;;;;;4346373;33;20131;-71
2021/04/29 06:33:13;;;;;;;20.97;12.80;;;;;;;;;;4346641;33;20185;-71
2021/04/29 06:35:38;;;;;;;23.93;13.73;;;;;;;;;;4344188;33;20163;-73
2021/04/29 06:38:04;;;;;;;23.70;13.87;;;;;;;;;;4346472;33;20214;-72
2021/04/29 06:40:32;;;;;;;20.67;13.40;;;;;;;;;;4346689;33;20219;-72
2021/04/29 06:42:57;;;;;;;22.10;13.00;;;;;;;;;;4346475;33;20298;-71
2021/04/29 06:45:22;;;;;;;22.63;13.67;;;;;;;;;;4345876;33;20486;-73
2021/04/29 06:47:49;;;;;;;20.90;13.87;;;;;;;;;;4344729;33;20182;-72
2021/04/29 06:50:14;;;;;;;20.17;12.63;;;;;;;;;;4345649;33;20187;-72
2021/04/29 06:52:51;;;;;;;20.37;12.73;;;;;;;;;;4346365;33;20136;-72
2021/04/29 06:55:17;;;;;;;23.50;12.57;;;;;;;;;;4346670;33;20173;-73
2021/04/29 06:57:42;;;;;;;20.27;12.53;;;;;;;;;;4346254;33;20588;-72
2021/04/29 07:00:08;;;;;;;21.73;13.57;;;;;;;;;;4346329;33;20135;-72
2021/04/29 07:02:33;;;;;;;21.23;12.83;;;;;;;;;;4345940;33;20541;-72
2021/04/29 07:04:58;;;;;;;20.47;12.60;;;;;;;;;;4346200;33;20144;-72
2021/04/29 07:07:33;;;;;;;19.13;12.70;;;;;;;;;;4332456;33;20174;-74
2021/04/29 07:09:58;;;;;;;20.40;13.40;;;;;;;;;;4345857;33;20177;-72
2021/04/29 07:12:23;;;;;;;21.37;13.47;;;;;;;;;;4332077;33;20168;-71
2021/04/29 07:14:49;;;;;;;20.00;12.43;;;;;;;;;;4345357;33;20143;-72
2021/04/29 07:17:17;;;;;;;26.90;13.77;;;;;;;;;;4345595;33;20520;-73
2021/04/29 07:19:51;;;;;;;21.23;12.60;;;;;;;;;;4346562;33;20252;-73
2021/04/29 07:22:16;;;;;;;20.27;12.80;;;;;;;;;;4332249;33;20167;-73
2021/04/29 07:24:43;;;;;;;25.90;14.00;;;;;;;;;;4344632;33;20633;-72
2021/04/29 07:27:08;;;;;;;22.90;13.30;;;;;;;;;;4334435;33;20187;-72
2021/04/29 07:29:33;;;;;;;21.67;14.00;;;;;;;;;;4361308;32;20131;-73
2021/04/29 07:32:02;;;;;;;24.63;14.37;;;;;;;;;;4360391;32;20170;-71
2021/04/29 07:34:27;;;;;;;22.73;13.53;;;;;;;;;;4360627;32;20174;-72
2021/04/29 07:36:52;;;;;;;23.97;14.43;;;;;;;;;;4360515;32;20131;-71
2021/04/29 07:39:18;;;;;;;21.83;13.87;;;;;;;;;;4360117;32;20626;-72
2021/04/29 07:41:43;;;;;;;22.50;13.70;;;;;;;;;;4360280;33;20135;-69
2021/04/29 07:44:09;;;;;;;23.60;13.70;;;;;;;;;;4360336;32;20303;-73
2021/04/29 07:46:34;;;;;;;23.47;15.07;;;;;;;;;;4360663;32;20194;-73
2021/04/29 07:48:59;;;;;;;23.53;13.47;;;;;;;;;;4359906;33;20140;-70
2021/04/29 07:51:27;;;;;;;21.63;14.30;;;;;;;;;;4360389;32;20135;-73
2021/04/29 07:54:00;;;;;;;23.57;13.87;;;;;;;;;;4346553;33;20466;-73
2021/04/29 07:56:25;;;;;;;20.57;13.37;;;;;;;;;;4359366;32;20166;-73
2021/04/29 07:58:50;;;;;;;22.87;13.57;;;;;;;;;;4359971;32;20135;-72
2021/04/29 08:01:16;;;;;;;23.73;15.07;;;;;;;;;;4360410;33;20163;-73
2021/04/29 08:03:50;;;;;;;21.87;13.13;;;;;;;;;;4360540;33;20215;-72
2021/04/29 08:06:18;;;;;;;22.10;13.10;;;;;;;;;;4360593;33;20139;-73
2021/04/29 08:08:46;;;;;;;20.63;12.77;;;;;;;;;;4359895;33;20170;-73
2021/04/29 08:11:15;;;;;;;20.40;12.97;;;;;;;;;;4360612;33;20147;-73
2021/04/29 08:13:40;;;;;;;23.17;13.70;;;;;;;;;;4359801;33;20202;-70
2021/04/29 08:16:05;;;;;;;19.93;13.00;;;;;;;;;;4360097;33;20159;-72
2021/04/29 08:18:30;;;;;;;20.67;13.20;;;;;;;;;;4360462;33;20131;-73
2021/04/29 08:20:55;;;;;;;20.63;12.77;;;;;;;;;;4360561;33;20136;-74
2021/04/29 08:23:21;;;;;;;20.20;13.00;;;;;;;;;;4360490;33;20131;-72
2021/04/29 08:25:46;;;;;;;18.10;12.20;;;;;;;;;;4346156;33;20170;-72
2021/04/29 08:28:32;;;;;;;21.27;12.50;;;;;;;;;;4345867;33;20175;-70
2021/04/29 08:30:58;;;;;;;19.43;13.10;;;;;;;;;;4360195;33;20226;-73
2021/04/29 08:33:23;;;;;;;21.60;13.20;;;;;;;;;;4359370;33;20143;-74
2021/04/29 08:35:56;;;;;;;25.97;14.70;;;;;;;;;;4360463;33;20224;-73
2021/04/29 08:38:23;;;;;;;19.33;12.73;;;;;;;;;;4360397;33;20246;-74
2021/04/29 08:40:52;;;;;;;20.40;13.13;;;;;;;;;;4346230;33;20166;-74
2021/04/29 08:43:19;;;;;;;18.57;12.73;;;;;;;;;;4360172;33;20217;-74
2021/04/29 08:45:44;;;;;;;20.80;13.17;;;;;;;;;;4360043;33;20170;-73
2021/04/29 08:48:15;;;;;;;21.90;13.73;;;;;;;;;;4359331;33;20142;-73
2021/04/29 08:50:41;;;;;;;20.47;12.03;;;;;;;;;;4360667;33;20140;-74
2021/04/29 08:53:06;;;;;;;20.93;12.97;;;;;;;;;;4360157;33;20170;-72
2021/04/29 08:58:19;;;;;;;20.83;12.60;;;;;;;;;;4351926;33;20179;-74
2021/04/29 09:00:44;;;;;;;19.50;13.07;;;;;;;;;;4359685;33;20190;-74
2021/04/29 09:03:12;;;;;;;18.43;12.13;;;;;;;;;;4359509;33;20609;-74
2021/04/29 09:05:38;;;;;;;21.63;12.83;;;;;;;;;;4359903;33;20170;-73
2021/04/29 09:08:09;;;;;;;17.70;12.17;;;;;;;;;;4359649;32;20166;-74
2021/04/29 09:10:39;;;;;;;19.73;12.97;;;;;;;;;;4362326;33;20151;-74
2021/04/29 09:13:20;;;;;;;21.93;12.93;;;;;;;;;;4362630;32;20170;-74
2021/04/29 09:15:46;;;;;;;19.53;13.50;;;;;;;;;;4362564;32;20142;-69
2021/04/29 09:18:16;;;;;;;18.37;12.67;;;;;;;;;;4362015;32;20163;-73
2021/04/29 09:20:58;;;;;;;19.87;12.63;;;;;;;;;;4362481;32;20209;-73
2021/04/29 09:23:27;;;;;;;17.37;13.07;;;;;;;;;;4361943;32;20460;-74
2021/04/29 09:25:56;;;;;;;20.00;13.13;;;;;;;;;;4361723;33;20245;-74
2021/04/29 09:28:34;;;;;;;19.67;12.73;;;;;;;;;;4361920;32;20213;-73
2021/04/29 09:31:00;;;;;;;19.47;13.40;;;;;;;;;;4361940;32;20146;-73
2021/04/29 09:33:34;;;;;;;23.90;14.20;;;;;;;;;;4361830;32;20156;-72
2021/04/29 09:36:00;;;;;;;22.60;13.43;;;;;;;;;;4361508;32;20610;-70
2021/04/29 09:38:36;;;;;;;21.33;14.00;;;;;;;;;;4362404;32;20140;-70
2021/04/29 09:41:01;;;;;;;21.63;13.63;;;;;;;;;;4361522;32;20186;-72
2021/04/29 09:43:27;;;;;;;23.03;13.80;;;;;;;;;;4362317;32;20205;-73
2021/04/29 09:45:59;;;;;;;22.60;14.87;;;;;;;;;;4361780;32;20151;-70
2021/04/29 09:48:39;;;;;;;20.43;13.63;;;;;;;;;;4362412;32;20595;-69
2021/04/29 09:51:20;;;;;;;22.57;13.80;;;;;;;;;;4362818;32;20135;-73
2021/04/29 09:53:53;;;;;;;23.47;13.93;;;;;;;;;;4361462;32;20569;-71
2021/04/29 09:56:20;;;;;;;23.10;14.20;;;;;;;;;;4361576;32;20480;-71
2021/04/29 09:58:55;;;;;;;20.67;14.10;;;;;;;;;;4361830;33;20195;-72
2021/04/29 10:01:20;;;;;;;25.40;14.80;;;;;;;;;;4362308;32;20189;-71
2021/04/29 10:03:46;;;;;;;24.33;13.83;;;;;;;;;;4361529;33;20135;-70
2021/04/29 10:06:13;;;;;;;24.10;14.90;;;;;;;;;;4361312;32;20449;-72
2021/04/29 10:08:38;;;;;;;23.90;14.43;;;;;;;;;;4361530;32;20197;-72
2021/04/29 10:11:04;;;;;;;24.80;15.33;;;;;;;;;;4361535;32;20144;-70
2021/04/29 10:13:37;;;;;;;22.63;13.47;;;;;;;;;;4360914;32;20513;-73
2021/04/29 10:16:06;;;;;;;22.83;14.47;;;;;;;;;;4361265;32;20210;-72
2021/04/29 10:18:34;;;;;;;24.07;14.33;;;;;;;;;;4361198;33;20186;-72
2021/04/29 10:21:09;;;;;;;24.63;14.57;;;;;;;;;;4361083;32;20167;-72
2021/04/29 10:23:34;;;;;;;24.03;15.30;;;;;;;;;;4362052;32;20185;-70
2021/04/29 10:26:00;;;;;;;29.70;16.70;;;;;;;;;;4348210;33;20581;-72
2021/04/29 10:28:45;;;;;;;27.00;16.20;;;;;;;;;;4361054;32;20167;-72
2021/04/29 10:31:18;;;;;;;33.67;18.80;;;;;;;;;;4361753;32;20165;-69
2021/04/29 10:33:47;;;;;;;26.57;15.93;;;;;;;;;;4347474;33;20174;-71
2021/04/29 10:36:13;;;;;;;26.77;17.37;;;;;;;;;;4361318;32;20170;-72
2021/04/29 10:38:38;;;;;;;26.27;16.70;;;;;;;;;;4361113;32;20514;-71
2021/04/29 10:41:29;;;;;;;;;;;;;;;;;;;;;
2021/04/29 10:44:01;;;;;;;33.30;19.27;;;;;;;;;;4360626;32;20151;-73
2021/04/29 10:46:49;;;;;;;33.93;21.37;;;;;;;;;;4361293;32;20173;-71
2021/04/29 10:49:15;;;;;;;38.20;19.80;;;;;;;;;;4360690;33;20615;-71
2021/04/29 10:51:41;;;;;;;30.60;18.63;;;;;;;;;;4347414;33;20167;-71
2021/04/29 10:54:18;;;;;;;33.80;19.73;;;;;;;;;;4361124;32;20170;-71
2021/04/29 10:57:00;;;;;;;28.17;18.53;;;;;;;;;;4347792;33;20498;-72
2021/04/29 10:59:49;;;;;;;29.83;19.20;;;;;;;;;;4361688;32;20533;-73
2021/04/29 11:02:24;;;;;;;33.77;19.33;;;;;;;;;;4361240;32;20169;-72
2021/04/29 11:04:53;;;;;;;29.07;18.80;;;;;;;;;;4361305;32;20138;-73
2021/04/29 11:07:22;;;;;;;33.97;20.40;;;;;;;;;;4360804;32;20162;-72
2021/04/29 11:10:07;;;;;;;33.87;18.07;;;;;;;;;;4361117;32;20166;-73
2021/04/29 11:12:40;;;;;;;28.63;18.10;;;;;;;;;;4360157;33;20159;-71
2021/04/29 11:15:05;;;;;;;26.53;16.27;;;;;;;;;;4360052;32;20166;-72
2021/04/29 11:17:39;;;;;;;33.63;17.43;;;;;;;;;;4360819;32;20483;-72
2021/04/29 11:20:08;;;;;;;33.90;16.77;;;;;;;;;;4361324;32;20162;-71
2021/04/29 11:22:34;;;;;;;37.03;18.10;;;;;;;;;;4360532;33;20174;-72
2021/04/29 11:25:00;;;;;;;37.23;18.47;;;;;;;;;;4360205;32;20548;-72
2021/04/29 11:27:40;;;;;;;31.40;18.63;;;;;;;;;;4361472;32;20221;-73
2021/04/29 11:30:12;;;;;;;32.20;19.80;;;;;;;;;;4360399;32;20185;-72
2021/04/29 11:32:57;;;;;;;43.43;23.13;;;;;;;;;;4359465;32;20169;-71
2021/04/29 11:35:34;;;;;;;33.93;19.63;;;;;;;;;;4360119;32;20138;-72
2021/04/29 11:38:02;;;;;;;30.13;18.60;;;;;;;;;;4360389;32;20135;-70
2021/04/29 11:40:28;;;;;;;39.73;22.27;;;;;;;;;;4360378;32;20203;-73
2021/04/29 11:42:55;;;;;;;32.60;19.30;;;;;;;;;;4360748;32;20170;-72
2021/04/29 11:45:53;;;;;;;34.40;18.53;;;;;;;;;;4360482;32;20139;-72
2021/04/29 11:48:14;;;;;;;33.00;20.90;;;;;;;;;;4357276;33;20201;-74
2021/04/29 11:50:41;;;;;;;30.60;18.67;;;;;;;;;;4360088;33;20148;-71
2021/04/29 11:53:16;;;;;;;21.50;10.90;;;;;;;;;;4360156;32;20147;-73
2021/04/29 11:55:46;;;;;;;19.03;10.50;;;;;;;;;;4360651;32;20161;-72
2021/04/29 11:58:50;;;;;;;21.57;9.10;;;;;;;;;;4360093;32;20181;-73
2021/04/29 12:01:15;;;;;;;25.73;11.10;;;;;;;;;;4321486;33;20174;-72
2021/04/29 12:03:53;;;;;;;21.93;9.77;;;;;;;;;;4360940;32;20258;-72
2021/04/29 12:06:25;;;;;;;23.53;9.77;;;;;;;;;;4360964;33;20190;-73
2021/04/29 12:09:04;;;;;;;22.67;9.40;;;;;;;;;;4360162;33;20196;-72
2021/04/29 12:11:29;;;;;;;22.43;10.10;;;;;;;;;;4360845;33;20147;-72
2021/04/29 12:13:54;;;;;;;21.47;9.17;;;;;;;;;;4360065;33;20426;-72
2021/04/29 12:16:24;;;;;;;22.07;9.57;;;;;;;;;;4360273;33;20148;-74
2021/04/29 12:18:50;;;;;;;25.50;9.30;;;;;;;;;;4360220;33;20146;-72
2021/04/29 12:21:21;;;;;;;17.17;9.20;;;;;;;;;;4346729;33;20163;-72
2021/04/29 12:23:56;;;;;;;18.07;8.07;;;;;;;;;;4358994;33;20218;-72
2021/04/29 12:26:28;;;;;;;17.87;8.53;;;;;;;;;;4360179;33;20189;-72
2021/04/29 12:28:58;;;;;;;21.83;8.30;;;;;;;;;;4360037;33;20166;-72
2021/04/29 12:31:23;;;;;;;17.93;7.83;;;;;;;;;;4360522;33;20170;-73
2021/04/29 12:34:05;;;;;;;16.47;8.00;;;;;;;;;;4359828;33;20147;-72
2021/04/29 12:36:37;;;;;;;11.30;7.37;;;;;;;;;;4359727;33;20144;-72
2021/04/29 12:39:17;;;;;;;13.60;6.57;;;;;;;;;;4359663;33;20142;-74
2021/04/29 12:41:46;;;;;;;11.20;6.73;;;;;;;;;;4360522;33;20249;-73
2021/04/29 12:44:11;;;;;;;12.03;6.10;;;;;;;;;;4362395;32;20565;-73
2021/04/29 12:46:41;;;;;;;14.23;6.73;;;;;;;;;;4362859;32;20155;-74
2021/04/29 12:49:16;;;;;;;11.70;5.70;;;;;;;;;;4362429;33;20178;-75
2021/04/29 12:51:42;;;;;;;12.53;6.70;;;;;;;;;;4363079;32;20238;-73
2021/04/29 12:54:19;;;;;;;13.67;6.90;;;;;;;;;;4362624;33;20147;-74
2021/04/29 12:56:54;;;;;;;10.70;6.77;;;;;;;;;;4357011;33;20135;-74
2021/04/29 12:59:23;;;;;;;10.93;5.97;;;;;;;;;;4363283;32;20130;-74
2021/04/29 13:02:02;;;;;;;8.77;5.13;;;;;;;;;;4363278;32;20186;-74
2021/04/29 13:04:27;;;;;;;12.33;6.40;;;;;;;;;;4362061;32;20200;-74
2021/04/29 13:06:54;;;;;;;12.43;6.20;;;;;;;;;;4362572;32;20147;-73
2021/04/29 13:12:09;;;;;;;9.93;5.57;;;;;;;;;;4363155;32;20165;-72
2021/04/29 13:14:44;;;;;;;10.20;5.90;;;;;;;;;;4361919;32;20505;-72
2021/04/29 13:17:13;;;;;;;14.70;5.80;;;;;;;;;;4362219;32;20155;-71
2021/04/29 13:19:44;;;;;;;9.30;5.43;;;;;;;;;;4362108;32;20541;-72
2021/04/29 13:22:10;;;;;;;9.90;5.47;;;;;;;;;;4362367;32;20139;-70
2021/04/29 13:24:35;;;;;;;13.23;5.47;;;;;;;;;;4348662;33;20240;-70
2021/04/29 13:27:01;;;;;;;11.60;6.20;;;;;;;;;;4362683;32;20159;-73
2021/04/29 13:29:26;;;;;;;12.03;5.17;;;;;;;;;;4361856;32;20242;-72
2021/04/29 13:31:52;;;;;;;10.23;5.27;;;;;;;;;;4362763;32;20235;-71
2021/04/29 13:34:17;;;;;;;10.20;5.00;;;;;;;;;;4362010;32;20241;-72
2021/04/29 13:36:43;;;;;;;12.37;5.00;;;;;;;;;;4361526;32;20147;-71
2021/04/29 13:39:08;;;;;;;13.70;5.13;;;;;;;;;;4361617;32;20154;-70
2021/04/29 13:41:34;;;;;;;11.47;5.13;;;;;;;;;;4361391;32;20207;-72
2021/04/29 13:43:59;;;;;;;7.63;4.20;;;;;;;;;;4362317;32;20143;-73
2021/04/29 13:46:24;;;;;;;10.80;4.40;;;;;;;;;;4362583;32;20554;-70
2021/04/29 13:48:50;;;;;;;8.87;4.13;;;;;;;;;;4362131;32;20165;-72
2021/04/29 13:51:16;;;;;;;7.03;4.20;;;;;;;;;;4362043;32;20131;-71
2021/04/29 13:53:41;;;;;;;7.93;4.80;;;;;;;;;;4362657;32;20615;-73
2021/04/29 13:56:07;;;;;;;7.23;4.77;;;;;;;;;;4361494;32;20198;-73
2021/04/29 13:58:33;;;;;;;7.23;4.47;;;;;;;;;;4361494;33;20142;-71
2021/04/29 14:00:58;;;;;;;9.23;4.90;;;;;;;;;;4361371;32;20285;-69
2021/04/29 14:03:28;;;;;;;7.23;4.37;;;;;;;;;;4361124;33;20213;-72
2021/04/29 14:05:54;;;;;;;5.40;4.00;;;;;;;;;;4361558;32;20193;-74
2021/04/29 14:08:19;;;;;;;8.87;4.60;;;;;;;;;;4361865;32;20556;-71
2021/04/29 14:10:44;;;;;;;8.97;4.57;;;;;;;;;;4360681;32;20135;-73
2021/04/29 14:13:10;;;;;;;12.47;4.30;;;;;;;;;;4361421;32;20488;-69
2021/04/29 14:15:36;;;;;;;8.13;4.60;;;;;;;;;;4361513;32;20162;-71
2021/04/29 14:18:02;;;;;;;7.60;4.10;;;;;;;;;;4348043;33;20502;-70
2021/04/29 14:20:27;;;;;;;11.60;4.80;;;;;;;;;;4361538;32;20143;-71
2021/04/29 14:22:53;;;;;;;10.53;4.63;;;;;;;;;;4361197;32;20136;-73
2021/04/29 14:25:19;;;;;;;6.13;4.37;;;;;;;;;;4361147;32;20453;-72
2021/04/29 14:27:44;;;;;;;8.27;5.20;;;;;;;;;;4360053;33;20196;-75
2021/04/29 14:30:10;;;;;;;10.23;5.07;;;;;;;;;;4361104;32;20155;-74
2021/04/29 14:32:38;;;;;;;9.80;5.07;;;;;;;;;;4361315;32;20166;-72
2021/04/29 14:35:04;;;;;;;10.57;5.00;;;;;;;;;;4360785;32;20151;-74
2021/04/29 14:37:29;;;;;;;14.47;5.73;;;;;;;;;;4360757;32;20219;-72
2021/04/29 14:39:54;;;;;;;10.37;4.80;;;;;;;;;;4360957;32;20186;-71
2021/04/29 14:42:20;;;;;;;11.83;5.33;;;;;;;;;;4361223;32;20179;-74
2021/04/29 14:44:45;;;;;;;12.90;6.00;;;;;;;;;;4360489;33;20147;-75
2021/04/29 14:47:10;;;;;;;10.82;4.95;;;;;;;;;;4361087;32;20138;-73
2021/04/29 14:49:36;;;;;;;11.77;5.35;;;;;;;;;;4361517;32;20173;-74
2021/04/29 14:52:01;;;;;;;11.60;4.57;;;;;;;;;;4360942;33;20147;-71
2021/04/29 14:54:27;;;;;;;13.40;5.30;;;;;;;;;;4360785;32;20170;-74
2021/04/29 14:56:55;;;;;;;10.70;4.80;;;;;;;;;;4360549;32;20579;-75
2021/04/29 14:59:20;;;;;;;12.93;4.57;;;;;;;;;;4347038;33;20225;-73
2021/04/29 15:01:45;;;;;;;11.60;4.40;;;;;;;;;;4360891;32;20135;-74
2021/04/29 15:04:11;;;;;;;12.07;4.95;;;;;;;;;;4360921;32;20476;-73
2021/04/29 15:06:36;;;;;;;10.55;4.12;;;;;;;;;;4359605;32;20509;-74
2021/04/29 15:09:04;;;;;;;10.23;4.75;;;;;;;;;;4360177;32;20470;-75
2021/04/29 15:11:35;;;;;;;8.82;4.35;;;;;;;;;;4361258;32;20139;-75
2021/04/29 15:14:00;;;;;;;16.90;5.28;;;;;;;;;;4361097;32;20182;-74
2021/04/29 15:16:25;;;;;;;14.48;4.80;;;;;;;;;;4361762;32;20139;-77
2021/04/29 15:18:50;;;;;;;9.75;4.47;;;;;;;;;;4360092;33;20306;-74
2021/04/29 15:21:16;;;;;;;11.55;4.95;;;;;;;;;;4361172;32;20191;-74
2021/04/29 15:23:41;;;;;;;12.05;5.43;;;;;;;;;;4359971;32;20165;-75
2021/04/29 15:26:08;;;;;;;11.70;4.78;;;;;;;;;;4360480;33;20611;-76
2021/04/29 15:28:33;;;;;;;12.98;5.43;;;;;;;;;;4346791;33;20589;-74
2021/04/29 15:30:59;;;;;;;10.80;5.40;;;;;;;;;;4347791;33;20209;-76
2021/04/29 15:33:24;;;;;;;13.52;5.30;;;;;;;;;;4360111;32;20205;-76
2021/04/29 15:35:49;;;;;;;14.68;5.80;;;;;;;;;;4360525;32;20135;-70
2021/04/29 15:38:14;;;;;;;13.82;5.50;;;;;;;;;;4360763;32;20162;-75
2021/04/29 15:40:39;;;;;;;9.35;5.47;;;;;;;;;;4360324;32;20314;-76
2021/04/29 15:43:12;;;;;;;12.40;5.68;;;;;;;;;;4346330;33;20213;-75
2021/04/29 15:45:38;;;;;;;12.93;5.32;;;;;;;;;;4360388;33;20607;-76
2021/04/29 15:48:03;;;;;;;12.50;4.87;;;;;;;;;;4360347;32;20135;-75
2021/04/29 15:50:29;;;;;;;10.50;5.12;;;;;;;;;;4346784;33;20221;-74
2021/04/29 15:52:54;;;;;;;12.65;5.45;;;;;;;;;;4360477;32;20139;-73
2021/04/29 15:55:20;;;;;;;10.27;5.22;;;;;;;;;;4360256;32;20143;-76
2021/04/29 15:57:46;;;;;;;15.55;5.40;;;;;;;;;;4359658;32;20140;-75
2021/04/29 16:00:12;;;;;;;9.73;4.95;;;;;;;;;;4359843;32;20166;-75
2021/04/29 16:02:38;;;;;;;12.02;5.35;;;;;;;;;;4359762;32;20150;-76
2021/04/29 16:05:04;;;;;;;8.93;4.75;;;;;;;;;;4360353;32;20238;-75